createdAt,value
2023-02-03T00:00:38.246Z,86.20
2023-02-03T00:03:05.035Z,85.90
2023-02-03T00:05:37.328Z,86.10
2023-02-03T00:08:04.881Z,86.80
2023-02-03T00:10:31.650Z,86.70
2023-02-03T00:12:58.305Z,87.00
2023-02-03T00:15:25.276Z,87.40
2023-02-03T00:17:51.840Z,87.30
2023-02-03T00:20:18.605Z,87.10
2023-02-03T00:22:47.649Z,86.80
2023-02-03T00:25:14.390Z,86.60
2023-02-03T00:27:41.217Z,86.50
2023-02-03T00:30:15.856Z,86.30
2023-02-03T00:32:42.577Z,86.40
2023-02-03T00:35:10.301Z,86.30
2023-02-03T00:37:36.941Z,86.10
2023-02-03T00:40:13.733Z,85.90
2023-02-03T00:42:43.559Z,85.70
2023-02-03T00:45:12.360Z,85.90
2023-02-03T00:47:39.223Z,85.80
2023-02-03T00:50:17.666Z,85.70
2023-02-03T00:52:45.509Z,85.80
2023-02-03T00:55:12.640Z,85.80
2023-02-03T00:57:49.585Z,86.10
2023-02-03T01:00:17.720Z,86.20
2023-02-03T01:02:44.362Z,86.20
2023-02-03T01:05:12.436Z,85.90
2023-02-03T01:07:41.583Z,86.10
2023-02-03T01:10:11.061Z,86.10
2023-02-03T01:12:40.577Z,85.90
2023-02-03T01:15:07.493Z,86.10
2023-02-03T01:17:34.193Z,86.20
2023-02-03T01:20:00.849Z,86.10
2023-02-03T01:22:29.926Z,86.10
2023-02-03T01:24:56.596Z,86.20
2023-02-03T01:27:23.227Z,86.50
2023-02-03T01:29:58.967Z,86.40
2023-02-03T01:32:25.592Z,86.40
2023-02-03T01:34:52.201Z,86.50
2023-02-03T01:37:19.313Z,86.30
2023-02-03T01:39:48.456Z,86.10
2023-02-03T01:42:15.610Z,86.00
2023-02-03T01:45:06.665Z,85.80
2023-02-03T01:47:50.634Z,85.80
2023-02-03T01:50:25.802Z,85.80
2023-02-03T01:52:55.370Z,85.70
2023-02-03T01:55:24.895Z,85.50
2023-02-03T01:58:00.357Z,85.60
2023-02-03T02:00:29.011Z,85.50
2023-02-03T02:02:59.188Z,85.40
2023-02-03T02:05:29.883Z,85.50
2023-02-03T02:07:57.453Z,85.30
2023-02-03T02:10:24.560Z,85.30
2023-02-03T02:12:52.230Z,85.50
2023-02-03T02:15:21.022Z,85.30
2023-02-03T02:17:50.538Z,85.20
2023-02-03T02:20:38.728Z,85.20
2023-02-03T02:23:05.323Z,85.20
2023-02-03T02:25:33.383Z,85.00
2023-02-03T02:28:18.776Z,84.90
2023-02-03T02:31:04.570Z,85.00
2023-02-03T02:33:36.649Z,84.90
2023-02-03T02:36:10.084Z,84.90
2023-02-03T02:39:00.266Z,85.00
2023-02-03T02:41:34.717Z,84.90
2023-02-03T02:44:09.760Z,84.90
2023-02-03T02:46:44.713Z,84.90
2023-02-03T02:49:28.622Z,84.80
2023-02-03T02:51:59.995Z,84.80
2023-02-03T02:54:27.887Z,84.80
2023-02-03T02:56:59.579Z,84.60
2023-02-03T02:59:28.525Z,84.80
2023-02-03T03:01:55.364Z,84.80
2023-02-03T03:04:26.909Z,84.50
2023-02-03T03:06:59.715Z,84.80
2023-02-03T03:09:36.242Z,84.70
2023-02-03T03:12:07.045Z,84.60
2023-02-03T03:14:36.367Z,84.50
2023-02-03T03:17:13.716Z,84.50
2023-02-03T03:19:43.475Z,84.60
2023-02-03T03:22:13.602Z,84.40
2023-02-03T03:24:46.815Z,84.60
2023-02-03T03:27:32.467Z,84.40
2023-02-03T03:30:04.988Z,84.40
2023-02-03T03:32:40.297Z,84.50
2023-02-03T03:35:07.990Z,84.40
2023-02-03T03:37:52.467Z,84.40
2023-02-03T03:40:22.279Z,84.40
2023-02-03T03:42:58.410Z,84.40
2023-02-03T03:45:28.379Z,84.40
2023-02-03T03:48:06.016Z,84.60
2023-02-03T03:50:34.737Z,84.40
2023-02-03T03:53:02.547Z,84.40
2023-02-03T03:55:33.839Z,84.50
2023-02-03T03:58:08.848Z,84.50
2023-02-03T04:00:39.403Z,84.40
2023-02-03T04:03:10.757Z,84.40
2023-02-03T04:05:41.699Z,84.40
2023-02-03T04:08:10.004Z,84.40
2023-02-03T04:10:41.274Z,84.10
2023-02-03T04:13:11.363Z,83.90
2023-02-03T04:15:38.266Z,83.80
2023-02-03T04:18:05.345Z,83.90
2023-02-03T04:20:32.380Z,83.80
2023-02-03T04:22:59.526Z,83.90
2023-02-03T04:25:26.565Z,83.90
2023-02-03T04:27:53.333Z,83.90
2023-02-03T04:30:20.090Z,83.90
2023-02-03T04:32:47.142Z,83.90
2023-02-03T04:35:14.022Z,84.00
2023-02-03T04:37:40.919Z,84.00
2023-02-03T04:40:11.095Z,84.00
2023-02-03T04:42:38.938Z,84.00
2023-02-03T04:45:06.415Z,84.00
2023-02-03T04:47:33.016Z,84.10
2023-02-03T04:50:00.247Z,84.00
2023-02-03T04:52:29.422Z,84.20
2023-02-03T04:54:56.085Z,84.10
2023-02-03T04:57:22.686Z,84.20
2023-02-03T04:59:49.312Z,84.20
2023-02-03T05:02:15.976Z,84.20
2023-02-03T05:04:49.718Z,84.20
2023-02-03T05:07:16.378Z,84.30
2023-02-03T05:09:42.979Z,84.20
2023-02-03T05:12:12.389Z,84.20
2023-02-03T05:14:39.017Z,84.20
2023-02-03T05:17:08.744Z,84.20
2023-02-03T05:19:35.472Z,84.40
2023-02-03T05:22:03.046Z,84.30
2023-02-03T05:24:29.824Z,84.30
2023-02-03T05:26:56.400Z,84.30
2023-02-03T05:29:23.116Z,84.40
2023-02-03T05:31:49.826Z,84.40
2023-02-03T05:34:22.615Z,84.30
2023-02-03T05:36:49.266Z,84.40
2023-02-03T05:39:16.219Z,84.40
2023-02-03T05:41:57.196Z,84.50
2023-02-03T05:44:26.514Z,84.40
2023-02-03T05:46:54.215Z,84.50
2023-02-03T05:49:23.078Z,84.40
2023-02-03T05:51:50.435Z,84.40
2023-02-03T05:54:17.229Z,84.50
2023-02-03T05:56:44.039Z,84.50
2023-02-03T05:59:10.798Z,84.40
2023-02-03T06:01:40.289Z,84.60
2023-02-03T06:04:07.049Z,84.60
2023-02-03T06:06:33.999Z,84.60
2023-02-03T06:09:01.840Z,84.60
2023-02-03T06:11:28.499Z,84.60
2023-02-03T06:13:56.250Z,84.60
2023-02-03T06:16:24.995Z,84.50
2023-02-03T06:18:52.658Z,84.50
2023-02-03T06:21:22.614Z,84.60
2023-02-03T06:23:49.367Z,84.70
2023-02-03T06:26:16.035Z,85.10
2023-02-03T06:28:42.748Z,85.10
2023-02-03T06:31:12.451Z,85.60
2023-02-03T06:33:39.085Z,85.50
2023-02-03T06:36:09.068Z,85.30
2023-02-03T06:38:35.709Z,85.10
2023-02-03T06:41:03.687Z,85.00
2023-02-03T06:43:30.376Z,85.00
2023-02-03T06:45:57.141Z,84.90
2023-02-03T06:48:23.983Z,84.90
2023-02-03T06:50:50.669Z,84.90
2023-02-03T06:53:22.907Z,84.90
2023-02-03T06:55:49.590Z,84.90
2023-02-03T06:58:16.315Z,84.90
2023-02-03T07:00:43.061Z,84.90
2023-02-03T07:03:14.780Z,84.90
2023-02-03T07:05:41.501Z,84.90
2023-02-03T07:08:08.288Z,84.90
2023-02-03T07:10:41.732Z,84.90
2023-02-03T07:13:15.449Z,84.90
2023-02-03T07:15:44.853Z,84.90
2023-02-03T07:18:11.865Z,85.00
2023-02-03T07:20:42.635Z,85.00
2023-02-03T07:23:16.610Z,85.00
2023-02-03T07:25:45.429Z,85.00
2023-02-03T07:28:12.124Z,85.00
2023-02-03T07:30:38.794Z,85.00
2023-02-03T07:33:05.479Z,85.20
2023-02-03T07:35:32.131Z,85.60
2023-02-03T07:37:58.788Z,85.60
2023-02-03T07:40:25.838Z,85.60
2023-02-03T07:42:53.970Z,85.60
2023-02-03T07:45:22.157Z,85.50
2023-02-03T07:47:51.116Z,85.30
2023-02-03T07:50:18.075Z,85.30
2023-02-03T07:52:49.911Z,85.10
2023-02-03T07:55:16.698Z,85.10
2023-02-03T07:57:44.729Z,85.00
2023-02-03T08:00:12.599Z,85.00
2023-02-03T08:02:41.001Z,85.10
2023-02-03T08:05:07.893Z,85.20
2023-02-03T08:07:36.709Z,85.10
2023-02-03T08:10:03.947Z,85.10
2023-02-03T08:12:30.769Z,85.00
2023-02-03T08:14:57.649Z,85.00
2023-02-03T08:17:24.369Z,84.80
2023-02-03T08:19:50.988Z,84.90
2023-02-03T08:22:17.965Z,84.70
2023-02-03T08:24:47.794Z,84.80
2023-02-03T08:27:18.711Z,84.60
2023-02-03T08:29:46.204Z,84.50
2023-02-03T08:32:13.956Z,84.70
2023-02-03T08:34:40.628Z,84.60
2023-02-03T08:37:11.025Z,84.60
2023-02-03T08:39:39.829Z,84.60
2023-02-03T08:42:13.081Z,84.30
2023-02-03T08:44:45.661Z,84.50
2023-02-03T08:47:12.609Z,84.40
2023-02-03T08:49:42.357Z,84.40
2023-02-03T08:52:10.585Z,84.30
2023-02-03T08:54:40.724Z,84.40
2023-02-03T08:57:07.976Z,84.30
2023-02-03T08:59:38.614Z,84.30
2023-02-03T09:02:08.132Z,84.40
2023-02-03T09:04:37.231Z,84.20
2023-02-03T09:07:04.431Z,84.10
2023-02-03T09:09:34.444Z,84.20
2023-02-03T09:12:02.500Z,84.30
2023-02-03T09:14:32.636Z,84.30
2023-02-03T09:16:59.998Z,84.30
2023-02-03T09:19:28.203Z,84.30
2023-02-03T09:21:55.354Z,84.10
2023-02-03T09:24:22.238Z,84.10
2023-02-03T09:26:49.015Z,84.20
2023-02-03T09:29:15.907Z,84.10
2023-02-03T09:31:47.000Z,84.10
2023-02-03T09:34:16.390Z,84.20
2023-02-03T09:36:47.379Z,84.00
2023-02-03T09:39:14.092Z,84.00
2023-02-03T09:42:01.109Z,84.10
2023-02-03T09:44:46.801Z,84.20
2023-02-03T09:47:22.572Z,84.00
2023-02-03T09:49:57.190Z,84.00
2023-02-03T09:52:30.132Z,84.00
2023-02-03T09:55:05.844Z,84.00
2023-02-03T09:57:40.501Z,84.40
2023-02-03T10:00:21.231Z,84.50
2023-02-03T10:02:58.053Z,84.60
2023-02-03T10:05:27.856Z,84.90
2023-02-03T10:07:57.586Z,85.00
2023-02-03T10:10:42.161Z,84.90
2023-02-03T10:13:13.842Z,85.00
2023-02-03T10:15:46.431Z,85.10
2023-02-03T10:18:15.649Z,84.90
2023-02-03T10:20:44.590Z,85.10
2023-02-03T10:23:23.298Z,85.20
2023-02-03T10:25:57.866Z,85.10
2023-02-03T10:28:29.250Z,85.10
2023-02-03T10:30:56.785Z,85.10
2023-02-03T10:33:31.119Z,85.20
2023-02-03T10:36:15.196Z,85.20
2023-02-03T10:38:41.785Z,85.80
2023-02-03T10:41:08.804Z,86.30
2023-02-03T10:43:48.025Z,86.10
2023-02-03T10:46:15.307Z,86.00
2023-02-03T10:48:45.169Z,85.70
2023-02-03T10:51:22.788Z,85.80
2023-02-03T10:53:53.248Z,86.00
2023-02-03T10:56:27.022Z,85.70
2023-02-03T10:59:00.927Z,85.70
2023-02-03T11:01:38.475Z,85.60
2023-02-03T11:04:23.326Z,85.80
2023-02-03T11:06:57.741Z,85.70
2023-02-03T11:09:43.012Z,85.60
2023-02-03T11:12:15.094Z,85.70
2023-02-03T11:14:57.123Z,85.70
2023-02-03T11:17:29.543Z,85.70
2023-02-03T11:20:06.352Z,85.60
2023-02-03T11:22:37.383Z,85.60
2023-02-03T11:25:22.839Z,85.60
2023-02-03T11:27:49.470Z,85.70
2023-02-03T11:30:20.443Z,85.70
2023-02-03T11:32:48.961Z,85.90
2023-02-03T11:35:24.573Z,86.10
2023-02-03T11:37:52.879Z,86.10
2023-02-03T11:40:24.060Z,87.00
2023-02-03T11:42:57.119Z,87.20
2023-02-03T11:45:41.622Z,87.10
2023-02-03T11:48:17.550Z,87.00
2023-02-03T11:50:51.495Z,86.70
2023-02-03T11:53:55.985Z,86.60
2023-02-03T11:56:50.075Z,86.40
2023-02-03T11:59:25.606Z,86.20
2023-02-03T12:02:10.477Z,86.20
2023-02-03T12:04:58.717Z,86.10
2023-02-03T12:07:42.615Z,86.10
2023-02-03T12:10:12.287Z,85.90
2023-02-03T12:12:47.978Z,85.90
2023-02-03T12:15:35.889Z,86.00
2023-02-03T12:18:10.809Z,85.90
2023-02-03T12:20:37.511Z,86.00
2023-02-03T12:23:23.878Z,85.90
2023-02-03T12:25:53.706Z,85.90
2023-02-03T12:28:47.737Z,86.00
2023-02-03T12:31:17.927Z,85.80
2023-02-03T12:33:54.232Z,85.80
2023-02-03T12:36:26.374Z,85.80
2023-02-03T12:39:02.838Z,85.90
2023-02-03T12:41:38.287Z,85.80
2023-02-03T12:44:08.411Z,85.80
2023-02-03T12:46:38.283Z,85.80
2023-02-03T12:49:24.848Z,85.90
2023-02-03T12:52:10.682Z,85.80
2023-02-03T12:54:45.447Z,85.80
2023-02-03T12:57:44.800Z,85.90
2023-02-03T13:00:17.156Z,85.80
2023-02-03T13:03:00.251Z,85.80
2023-02-03T13:05:38.993Z,85.70
2023-02-03T13:08:11.834Z,86.30
2023-02-03T13:11:04.701Z,88.40
2023-02-03T13:13:36.596Z,91.30
2023-02-03T13:16:06.384Z,91.90
2023-02-03T13:18:37.249Z,91.80
2023-02-03T13:21:04.148Z,91.50
2023-02-03T13:23:33.643Z,91.10
2023-02-03T13:26:15.634Z,90.90
2023-02-03T13:29:01.231Z,90.90
2023-02-03T13:31:41.776Z,90.40
2023-02-03T13:34:15.696Z,90.20
2023-02-03T13:36:48.299Z,90.30
2023-02-03T13:39:25.363Z,89.90
2023-02-03T13:41:58.194Z,89.70
2023-02-03T13:44:39.705Z,89.50
2023-02-03T13:47:06.672Z,89.30
2023-02-03T13:49:36.710Z,89.20
2023-02-03T13:52:06.427Z,88.90
2023-02-03T13:54:35.401Z,88.20
2023-02-03T13:57:18.778Z,87.90
2023-02-03T13:59:49.721Z,87.50
2023-02-03T14:02:19.443Z,86.90
2023-02-03T14:04:46.268Z,86.50
2023-02-03T14:07:31.497Z,86.30
2023-02-03T14:10:13.286Z,86.30
2023-02-03T14:12:51.870Z,86.20
2023-02-03T14:15:48.428Z,86.20
2023-02-03T14:18:34.979Z,86.30
2023-02-03T14:21:15.429Z,86.30
2023-02-03T14:23:44.572Z,86.40
2023-02-03T14:26:20.146Z,86.90
2023-02-03T14:28:52.699Z,86.20
2023-02-03T14:31:21.852Z,85.80
2023-02-03T14:33:48.983Z,85.40
2023-02-03T14:36:29.893Z,86.00
2023-02-03T14:38:57.888Z,85.60
2023-02-03T14:41:30.875Z,86.10
2023-02-03T14:44:22.497Z,86.10
2023-02-03T14:46:53.782Z,86.00
2023-02-03T14:49:38.637Z,85.90
2023-02-03T14:52:17.430Z,85.80
2023-02-03T14:54:50.513Z,85.80
2023-02-03T14:57:26.067Z,85.80
2023-02-03T15:00:26.721Z,85.90
2023-02-03T15:03:12.253Z,85.80
2023-02-03T15:05:46.280Z,85.80
2023-02-03T15:08:31.782Z,85.90
2023-02-03T15:10:58.730Z,85.80
2023-02-03T15:13:26.308Z,85.90
2023-02-03T15:15:53.953Z,85.80
2023-02-03T15:18:22.635Z,85.90
2023-02-03T15:20:53.439Z,85.90
2023-02-03T15:23:24.297Z,85.80
2023-02-03T15:25:55.021Z,85.80
2023-02-03T15:28:22.435Z,85.80
2023-02-03T15:30:58.703Z,85.90
2023-02-03T15:33:30.225Z,85.90
2023-02-03T15:35:59.557Z,85.90
2023-02-03T15:38:30.681Z,85.90
2023-02-03T15:41:00.583Z,85.90
2023-02-03T15:43:41.005Z,85.90
2023-02-03T15:46:25.229Z,85.90
2023-02-03T15:49:17.766Z,85.80
2023-02-03T15:52:03.919Z,85.90
2023-02-03T15:54:42.348Z,85.90
2023-02-03T15:57:20.410Z,85.90
2023-02-03T15:59:53.626Z,85.90
2023-02-03T16:02:27.354Z,85.70
2023-02-03T16:04:57.878Z,85.80
2023-02-03T16:07:26.148Z,85.80
2023-02-03T16:09:53.600Z,85.80
2023-02-03T16:12:23.382Z,85.80
2023-02-03T16:14:51.066Z,85.80
2023-02-03T16:17:33.909Z,85.70
2023-02-03T16:20:13.028Z,85.70
2023-02-03T16:22:45.924Z,85.90
2023-02-03T16:25:19.588Z,85.70
2023-02-03T16:28:14.191Z,85.80
2023-02-03T16:31:12.790Z,85.80
2023-02-03T16:33:58.151Z,85.80
2023-02-03T16:36:43.988Z,85.60
2023-02-03T16:39:30.831Z,85.60
2023-02-03T16:42:21.747Z,85.90
2023-02-03T16:45:08.841Z,85.80
2023-02-03T16:47:56.977Z,85.60
2023-02-03T16:50:42.617Z,85.70
2023-02-03T16:53:13.118Z,85.90
2023-02-03T16:55:40.245Z,85.90
2023-02-03T16:58:11.968Z,85.70
2023-02-03T17:00:43.010Z,86.00
2023-02-03T17:03:14.173Z,85.70
2023-02-03T17:05:41.688Z,85.60
2023-02-03T17:08:08.739Z,85.70
2023-02-03T17:10:39.125Z,85.80
2023-02-03T17:13:06.559Z,85.70
2023-02-03T17:15:35.607Z,85.70
2023-02-03T17:18:02.380Z,85.60
2023-02-03T17:20:29.261Z,85.80
2023-02-03T17:22:56.055Z,85.70
2023-02-03T17:25:22.753Z,85.60
2023-02-03T17:27:52.086Z,85.60
2023-02-03T17:30:18.926Z,85.60
2023-02-03T17:32:48.062Z,85.70
2023-02-03T17:35:15.120Z,85.90
2023-02-03T17:37:44.707Z,85.90
2023-02-03T17:54:06.228Z,85.80
2023-02-03T17:56:33.905Z,85.60
2023-02-03T17:59:01.618Z,85.60
2023-02-03T18:01:28.628Z,85.60
2023-02-03T18:04:00.850Z,85.60
2023-02-03T18:06:32.076Z,85.70
2023-02-03T18:09:04.000Z,85.90
2023-02-03T18:11:31.401Z,86.00
2023-02-03T18:14:00.729Z,85.90
2023-02-03T18:16:29.402Z,85.80
2023-02-03T18:18:56.436Z,85.80
2023-02-03T18:21:23.802Z,85.70
2023-02-03T18:23:56.925Z,85.60
2023-02-03T18:26:23.829Z,85.60
2023-02-03T18:28:51.762Z,85.60
2023-02-03T18:31:19.200Z,85.60
2023-02-03T18:33:46.647Z,85.50
2023-02-03T18:36:16.717Z,85.70
2023-02-03T18:38:44.791Z,85.70
2023-02-03T18:41:15.492Z,85.50
2023-02-03T18:43:42.340Z,85.50
2023-02-03T18:46:10.339Z,85.50
2023-02-03T18:48:37.451Z,85.50
2023-02-03T18:51:07.940Z,85.60
2023-02-03T18:53:34.630Z,85.50
2023-02-03T18:56:01.854Z,85.50
2023-02-03T18:58:31.100Z,85.50
2023-02-03T19:00:58.926Z,85.40
2023-02-03T19:03:26.815Z,85.40
2023-02-03T19:05:56.364Z,85.50
2023-02-03T19:08:23.240Z,85.40
2023-02-03T19:11:01.393Z,85.50
2023-02-03T19:13:30.962Z,86.80
2023-02-03T19:16:05.005Z,86.20
2023-02-03T19:18:32.957Z,85.90
2023-02-03T19:21:02.249Z,85.90
2023-02-03T19:23:28.890Z,86.10
2023-02-03T19:25:55.587Z,86.20
2023-02-03T19:28:30.509Z,86.20
2023-02-03T19:31:08.914Z,86.10
2023-02-03T19:33:36.383Z,86.10
2023-02-03T19:36:03.848Z,86.10
2023-02-03T19:38:41.062Z,86.10
2023-02-03T19:41:14.778Z,85.90
2023-02-03T19:43:41.467Z,85.90
2023-02-03T19:46:08.482Z,85.90
2023-02-03T19:48:35.781Z,85.90
2023-02-03T19:51:02.527Z,85.60
2023-02-03T19:53:29.299Z,85.90
2023-02-03T19:55:59.149Z,85.70
2023-02-03T19:58:26.028Z,85.80
2023-02-03T20:00:55.651Z,85.70
2023-02-03T20:03:22.867Z,85.80
2023-02-03T20:05:50.022Z,85.60
2023-02-03T20:08:16.763Z,85.60
2023-02-03T20:10:47.554Z,85.60
2023-02-03T20:13:14.321Z,85.70
2023-02-03T20:15:44.181Z,85.70
2023-02-03T20:18:10.892Z,85.60
2023-02-03T20:20:40.213Z,85.60
2023-02-03T20:23:07.073Z,86.50
2023-02-03T20:25:36.037Z,87.10
2023-02-03T20:28:04.184Z,86.90
2023-02-03T20:30:31.360Z,86.20
2023-02-03T20:32:58.662Z,85.30
2023-02-03T20:35:26.438Z,84.90
2023-02-03T20:37:54.656Z,85.20
2023-02-03T20:40:26.697Z,85.10
2023-02-03T20:42:53.498Z,85.00
2023-02-03T20:45:21.124Z,84.90
2023-02-03T20:47:56.956Z,84.90
2023-02-03T20:50:31.699Z,85.00
2023-02-03T20:53:01.098Z,84.90
2023-02-03T20:55:30.358Z,85.00
2023-02-03T20:57:58.990Z,85.00
2023-02-03T21:00:26.436Z,85.00
2023-02-03T21:03:11.991Z,85.00
2023-02-03T21:05:46.596Z,85.10
2023-02-03T21:08:17.451Z,84.90
2023-02-03T21:10:47.885Z,85.10
2023-02-03T21:13:20.641Z,84.90
2023-02-03T21:15:48.955Z,85.10
2023-02-03T21:18:36.447Z,85.10
2023-02-03T21:21:16.954Z,85.00
2023-02-03T21:23:47.680Z,85.00
2023-02-03T21:26:17.577Z,85.10
2023-02-03T21:28:44.268Z,84.90
2023-02-03T21:31:29.487Z,84.90
2023-02-03T21:34:00.169Z,84.90
2023-02-03T21:36:28.664Z,84.90
2023-02-03T21:38:57.325Z,84.90
2023-02-03T21:41:24.681Z,84.90
2023-02-03T21:43:52.824Z,84.90
2023-02-03T21:46:26.953Z,85.10
2023-02-03T21:48:54.732Z,85.10
2023-02-03T21:51:26.590Z,85.00
2023-02-03T21:53:55.422Z,85.00
2023-02-03T21:56:42.388Z,85.10
2023-02-03T21:59:15.973Z,84.90
2023-02-03T22:01:50.111Z,85.00
2023-02-03T22:04:16.789Z,84.90
2023-02-03T22:06:46.537Z,84.90
2023-02-03T22:09:14.072Z,85.00
2023-02-03T22:11:40.698Z,85.00
2023-02-03T22:14:07.350Z,85.00
2023-02-03T22:16:34.080Z,85.00
2023-02-03T22:19:02.653Z,84.80
2023-02-03T22:21:32.078Z,85.00
2023-02-03T22:23:59.266Z,84.80
2023-02-03T22:26:34.910Z,85.00
2023-02-03T22:29:02.496Z,84.90
2023-02-03T22:31:34.400Z,85.00
2023-02-03T22:34:01.297Z,85.30
2023-02-03T22:36:31.045Z,85.10
2023-02-03T22:39:00.326Z,85.10
2023-02-03T22:41:35.625Z,85.20
2023-02-03T22:44:04.250Z,85.60
2023-02-03T22:46:30.921Z,87.10
2023-02-03T22:48:57.550Z,87.50
2023-02-03T22:51:28.050Z,87.40
2023-02-03T22:53:54.714Z,87.30
2023-02-03T22:56:22.559Z,86.90
2023-02-03T22:58:50.218Z,86.40
2023-02-03T23:01:16.858Z,86.30
2023-02-03T23:03:43.505Z,86.00
2023-02-03T23:06:10.119Z,85.90
2023-02-03T23:08:39.173Z,85.60
2023-02-03T23:11:07.899Z,85.60
2023-02-03T23:13:37.393Z,85.80
2023-02-03T23:16:04.238Z,85.60
2023-02-03T23:18:30.844Z,85.30
2023-02-03T23:20:57.439Z,85.20
2023-02-03T23:23:24.050Z,85.10
2023-02-03T23:25:50.681Z,85.20
2023-02-03T23:28:17.457Z,85.40
2023-02-03T23:30:44.428Z,85.60
2023-02-03T23:33:11.409Z,85.90
2023-02-03T23:35:47.402Z,87.60
2023-02-03T23:38:14.775Z,88.10
2023-02-03T23:40:42.828Z,86.90
2023-02-03T23:43:16.690Z,85.70
2023-02-03T23:45:43.315Z,85.00
2023-02-03T23:48:10.015Z,84.70
2023-02-03T23:50:38.991Z,84.80
2023-02-03T23:53:05.706Z,84.60
2023-02-03T23:55:32.374Z,84.60
2023-02-03T23:57:59.157Z,84.60
